sensor_id;sensor_type;location;lat;lon;timestamp;temperature;humidity
21493;DHT22;10908;50.690;4.400;2022-12-29T00:01:36;11.30;87.70
21493;DHT22;10908;50.690;4.400;2022-12-29T00:04:03;11.30;87.40
21493;DHT22;10908;50.690;4.400;2022-12-29T00:06:29;11.30;87.00
21493;DHT22;10908;50.690;4.400;2022-12-29T00:08:55;11.30;86.70
21493;DHT22;10908;50.690;4.400;2022-12-29T00:11:23;11.30;86.50
21493;DHT22;10908;50.690;4.400;2022-12-29T00:13:51;11.30;86.20
21493;DHT22;10908;50.690;4.400;2022-12-29T00:16:36;11.40;85.90
21493;DHT22;10908;50.690;4.400;2022-12-29T00:19:03;11.40;85.80
21493;DHT22;10908;50.690;4.400;2022-12-29T00:21:29;11.40;85.80
21493;DHT22;10908;50.690;4.400;2022-12-29T00:24:16;11.40;85.50
21493;DHT22;10908;50.690;4.400;2022-12-29T00:29:51;11.40;85.70
21493;DHT22;10908;50.690;4.400;2022-12-29T00:32:35;11.30;86.20
21493;DHT22;10908;50.690;4.400;2022-12-29T00:35:33;11.40;86.20
21493;DHT22;10908;50.690;4.400;2022-12-29T00:38:04;11.30;86.40
21493;DHT22;10908;50.690;4.400;2022-12-29T00:40:50;11.20;86.60
21493;DHT22;10908;50.690;4.400;2022-12-29T00:43:34;11.30;86.80
21493;DHT22;10908;50.690;4.400;2022-12-29T00:46:18;11.20;86.80
21493;DHT22;10908;50.690;4.400;2022-12-29T00:48:44;11.10;86.80
21493;DHT22;10908;50.690;4.400;2022-12-29T00:51:28;11.20;86.70
21493;DHT22;10908;50.690;4.400;2022-12-29T00:53:54;11.20;86.60
21493;DHT22;10908;50.690;4.400;2022-12-29T00:56:19;11.30;86.50
21493;DHT22;10908;50.690;4.400;2022-12-29T00:58:45;11.30;86.50
21493;DHT22;10908;50.690;4.400;2022-12-29T01:01:11;11.20;86.80
21493;DHT22;10908;50.690;4.400;2022-12-29T01:03:37;11.10;87.60
21493;DHT22;10908;50.690;4.400;2022-12-29T01:06:09;11.10;87.90
21493;DHT22;10908;50.690;4.400;2022-12-29T01:08:35;11.00;88.10
21493;DHT22;10908;50.690;4.400;2022-12-29T01:11:07;11.10;88.50
21493;DHT22;10908;50.690;4.400;2022-12-29T01:13:34;11.00;88.80
21493;DHT22;10908;50.690;4.400;2022-12-29T01:16:02;10.90;89.50
21493;DHT22;10908;50.690;4.400;2022-12-29T01:18:27;10.90;90.00
21493;DHT22;10908;50.690;4.400;2022-12-29T01:21:04;10.80;90.20
21493;DHT22;10908;50.690;4.400;2022-12-29T01:23:31;10.80;90.20
21493;DHT22;10908;50.690;4.400;2022-12-29T01:25:57;10.80;90.30
21493;DHT22;10908;50.690;4.400;2022-12-29T01:28:22;10.80;90.50
21493;DHT22;10908;50.690;4.400;2022-12-29T01:30:48;10.80;90.90
21493;DHT22;10908;50.690;4.400;2022-12-29T01:33:14;10.80;91.10
21493;DHT22;10908;50.690;4.400;2022-12-29T01:35:40;10.70;91.40
21493;DHT22;10908;50.690;4.400;2022-12-29T01:38:05;10.70;91.80
21493;DHT22;10908;50.690;4.400;2022-12-29T01:40:31;10.70;91.90
21493;DHT22;10908;50.690;4.400;2022-12-29T01:42:57;10.60;92.10
21493;DHT22;10908;50.690;4.400;2022-12-29T01:45:23;10.70;92.20
21493;DHT22;10908;50.690;4.400;2022-12-29T01:47:58;10.70;92.20
21493;DHT22;10908;50.690;4.400;2022-12-29T01:50:32;10.60;92.00
21493;DHT22;10908;50.690;4.400;2022-12-29T01:55:25;10.70;91.60
21493;DHT22;10908;50.690;4.400;2022-12-29T01:57:53;10.80;91.40
21493;DHT22;10908;50.690;4.400;2022-12-29T02:00:20;10.80;91.00
21493;DHT22;10908;50.690;4.400;2022-12-29T02:02:49;10.80;90.70
21493;DHT22;10908;50.690;4.400;2022-12-29T02:05:32;10.90;90.50
21493;DHT22;10908;50.690;4.400;2022-12-29T02:07:59;10.90;90.30
21493;DHT22;10908;50.690;4.400;2022-12-29T02:10:27;10.90;90.40
21493;DHT22;10908;50.690;4.400;2022-12-29T02:12:53;10.90;90.50
21493;DHT22;10908;50.690;4.400;2022-12-29T02:15:27;10.90;90.50
21493;DHT22;10908;50.690;4.400;2022-12-29T02:18:08;10.90;90.60
21493;DHT22;10908;50.690;4.400;2022-12-29T02:26:16;10.80;91.10
21493;DHT22;10908;50.690;4.400;2022-12-29T02:34:25;10.80;91.90
21493;DHT22;10908;50.690;4.400;2022-12-29T02:39:40;10.70;91.90
21493;DHT22;10908;50.690;4.400;2022-12-29T02:42:22;10.80;91.90
21493;DHT22;10908;50.690;4.400;2022-12-29T02:45:15;10.80;91.70
21493;DHT22;10908;50.690;4.400;2022-12-29T02:50:47;10.80;91.80
21493;DHT22;10908;50.690;4.400;2022-12-29T02:53:17;10.80;91.80
21493;DHT22;10908;50.690;4.400;2022-12-29T02:56:04;10.80;91.90
21493;DHT22;10908;50.690;4.400;2022-12-29T02:58:30;10.80;91.80
21493;DHT22;10908;50.690;4.400;2022-12-29T03:11:19;10.80;91.30
21493;DHT22;10908;50.690;4.400;2022-12-29T03:17:06;10.90;90.80
21493;DHT22;10908;50.690;4.400;2022-12-29T03:19:45;10.80;90.80
21493;DHT22;10908;50.690;4.400;2022-12-29T03:22:22;10.80;90.80
21493;DHT22;10908;50.690;4.400;2022-12-29T03:25:03;10.60;90.70
21493;DHT22;10908;50.690;4.400;2022-12-29T03:27:34;10.70;90.70
21493;DHT22;10908;50.690;4.400;2022-12-29T03:30:04;10.70;90.30
21493;DHT22;10908;50.690;4.400;2022-12-29T03:32:38;10.60;90.00
21493;DHT22;10908;50.690;4.400;2022-12-29T03:35:08;10.60;89.30
21493;DHT22;10908;50.690;4.400;2022-12-29T03:37:38;10.60;88.70
21493;DHT22;10908;50.690;4.400;2022-12-29T03:40:06;10.60;88.10
21493;DHT22;10908;50.690;4.400;2022-12-29T03:42:34;10.50;87.90
21493;DHT22;10908;50.690;4.400;2022-12-29T03:45:00;10.50;87.80
21493;DHT22;10908;50.690;4.400;2022-12-29T03:47:26;10.50;87.80
21493;DHT22;10908;50.690;4.400;2022-12-29T03:49:52;10.50;87.50
21493;DHT22;10908;50.690;4.400;2022-12-29T03:52:18;10.50;87.50
21493;DHT22;10908;50.690;4.400;2022-12-29T03:54:44;10.40;87.10
21493;DHT22;10908;50.690;4.400;2022-12-29T03:57:11;10.40;87.10
21493;DHT22;10908;50.690;4.400;2022-12-29T03:59:36;10.40;87.00
21493;DHT22;10908;50.690;4.400;2022-12-29T04:02:02;10.40;87.10
21493;DHT22;10908;50.690;4.400;2022-12-29T04:04:28;10.40;87.30
21493;DHT22;10908;50.690;4.400;2022-12-29T04:06:53;10.40;87.60
21493;DHT22;10908;50.690;4.400;2022-12-29T04:09:19;10.30;87.80
21493;DHT22;10908;50.690;4.400;2022-12-29T04:11:45;10.30;88.10
21493;DHT22;10908;50.690;4.400;2022-12-29T04:14:10;10.30;88.20
21493;DHT22;10908;50.690;4.400;2022-12-29T04:16:36;10.30;88.30
21493;DHT22;10908;50.690;4.400;2022-12-29T04:19:04;10.30;88.30
21493;DHT22;10908;50.690;4.400;2022-12-29T04:21:30;10.30;88.30
21493;DHT22;10908;50.690;4.400;2022-12-29T04:23:56;10.20;88.30
21493;DHT22;10908;50.690;4.400;2022-12-29T04:26:21;10.20;88.30
21493;DHT22;10908;50.690;4.400;2022-12-29T04:28:47;10.30;88.30
21493;DHT22;10908;50.690;4.400;2022-12-29T04:31:13;10.30;88.10
21493;DHT22;10908;50.690;4.400;2022-12-29T04:33:38;10.30;88.00
21493;DHT22;10908;50.690;4.400;2022-12-29T04:36:04;10.30;87.80
21493;DHT22;10908;50.690;4.400;2022-12-29T04:38:30;10.20;87.50
21493;DHT22;10908;50.690;4.400;2022-12-29T04:40:59;10.30;87.30
21493;DHT22;10908;50.690;4.400;2022-12-29T04:43:25;10.20;87.20
21493;DHT22;10908;50.690;4.400;2022-12-29T04:45:50;10.30;86.90
21493;DHT22;10908;50.690;4.400;2022-12-29T04:48:16;10.30;86.40
21493;DHT22;10908;50.690;4.400;2022-12-29T04:50:42;10.40;86.20
21493;DHT22;10908;50.690;4.400;2022-12-29T04:53:08;10.40;85.90
21493;DHT22;10908;50.690;4.400;2022-12-29T04:55:34;10.50;85.60
21493;DHT22;10908;50.690;4.400;2022-12-29T04:57:59;10.50;85.50
21493;DHT22;10908;50.690;4.400;2022-12-29T05:00:25;10.60;85.30
21493;DHT22;10908;50.690;4.400;2022-12-29T05:02:51;10.60;85.10
21493;DHT22;10908;50.690;4.400;2022-12-29T05:05:17;10.60;84.80
21493;DHT22;10908;50.690;4.400;2022-12-29T05:07:42;10.60;84.80
21493;DHT22;10908;50.690;4.400;2022-12-29T05:10:08;10.70;84.40
21493;DHT22;10908;50.690;4.400;2022-12-29T05:12:35;10.80;84.30
21493;DHT22;10908;50.690;4.400;2022-12-29T05:15:02;10.80;84.00
21493;DHT22;10908;50.690;4.400;2022-12-29T05:17:28;10.70;84.10
21493;DHT22;10908;50.690;4.400;2022-12-29T05:19:54;10.70;84.00
21493;DHT22;10908;50.690;4.400;2022-12-29T05:22:20;10.60;83.80
21493;DHT22;10908;50.690;4.400;2022-12-29T05:24:46;10.60;83.70
21493;DHT22;10908;50.690;4.400;2022-12-29T05:27:12;10.60;83.40
21493;DHT22;10908;50.690;4.400;2022-12-29T05:29:37;10.60;83.10
21493;DHT22;10908;50.690;4.400;2022-12-29T05:32:03;10.60;82.50
21493;DHT22;10908;50.690;4.400;2022-12-29T05:34:29;10.60;82.70
21493;DHT22;10908;50.690;4.400;2022-12-29T05:36:54;10.60;82.70
21493;DHT22;10908;50.690;4.400;2022-12-29T05:39:20;10.50;82.60
21493;DHT22;10908;50.690;4.400;2022-12-29T05:41:46;10.60;82.70
21493;DHT22;10908;50.690;4.400;2022-12-29T05:44:11;10.60;82.70
21493;DHT22;10908;50.690;4.400;2022-12-29T05:46:37;10.60;82.60
21493;DHT22;10908;50.690;4.400;2022-12-29T05:49:04;10.60;82.50
21493;DHT22;10908;50.690;4.400;2022-12-29T05:51:30;10.60;82.70
21493;DHT22;10908;50.690;4.400;2022-12-29T05:53:55;10.50;82.70
21493;DHT22;10908;50.690;4.400;2022-12-29T05:56:21;10.50;82.20
21493;DHT22;10908;50.690;4.400;2022-12-29T05:58:47;10.50;82.40
21493;DHT22;10908;50.690;4.400;2022-12-29T06:01:12;10.40;81.70
21493;DHT22;10908;50.690;4.400;2022-12-29T06:03:38;10.50;81.80
21493;DHT22;10908;50.690;4.400;2022-12-29T06:06:04;10.50;81.90
21493;DHT22;10908;50.690;4.400;2022-12-29T06:08:32;10.60;81.90
21493;DHT22;10908;50.690;4.400;2022-12-29T06:10:58;10.60;82.10
21493;DHT22;10908;50.690;4.400;2022-12-29T06:13:23;10.50;82.20
21493;DHT22;10908;50.690;4.400;2022-12-29T06:15:49;10.60;81.70
21493;DHT22;10908;50.690;4.400;2022-12-29T06:18:15;10.50;81.90
21493;DHT22;10908;50.690;4.400;2022-12-29T06:20:40;10.50;81.50
21493;DHT22;10908;50.690;4.400;2022-12-29T06:23:06;10.60;81.40
21493;DHT22;10908;50.690;4.400;2022-12-29T06:25:32;10.60;81.50
21493;DHT22;10908;50.690;4.400;2022-12-29T06:27:59;10.60;81.60
21493;DHT22;10908;50.690;4.400;2022-12-29T06:30:25;10.70;80.80
21493;DHT22;10908;50.690;4.400;2022-12-29T06:32:50;10.70;80.50
21493;DHT22;10908;50.690;4.400;2022-12-29T06:35:17;10.70;80.60
21493;DHT22;10908;50.690;4.400;2022-12-29T06:37:43;10.70;80.70
21493;DHT22;10908;50.690;4.400;2022-12-29T06:40:09;10.70;80.80
21493;DHT22;10908;50.690;4.400;2022-12-29T06:42:35;10.70;80.10
21493;DHT22;10908;50.690;4.400;2022-12-29T06:45:01;10.70;80.00
21493;DHT22;10908;50.690;4.400;2022-12-29T06:47:26;10.60;79.70
21493;DHT22;10908;50.690;4.400;2022-12-29T06:49:52;10.70;80.00
21493;DHT22;10908;50.690;4.400;2022-12-29T06:52:18;10.70;80.20
21493;DHT22;10908;50.690;4.400;2022-12-29T06:54:43;10.60;80.20
21493;DHT22;10908;50.690;4.400;2022-12-29T06:57:09;10.70;80.60
21493;DHT22;10908;50.690;4.400;2022-12-29T06:59:34;10.60;80.60
21493;DHT22;10908;50.690;4.400;2022-12-29T07:02:00;10.60;81.10
21493;DHT22;10908;50.690;4.400;2022-12-29T07:04:27;10.50;81.30
21493;DHT22;10908;50.690;4.400;2022-12-29T07:06:53;10.50;81.70
21493;DHT22;10908;50.690;4.400;2022-12-29T07:09:19;10.40;81.70
21493;DHT22;10908;50.690;4.400;2022-12-29T07:11:44;10.40;82.10
21493;DHT22;10908;50.690;4.400;2022-12-29T07:14:11;10.40;82.20
21493;DHT22;10908;50.690;4.400;2022-12-29T07:16:37;10.40;82.60
21493;DHT22;10908;50.690;4.400;2022-12-29T07:19:03;10.30;82.50
21493;DHT22;10908;50.690;4.400;2022-12-29T07:21:28;10.30;82.30
21493;DHT22;10908;50.690;4.400;2022-12-29T07:23:54;10.30;82.10
21493;DHT22;10908;50.690;4.400;2022-12-29T07:26:20;10.30;82.00
21493;DHT22;10908;50.690;4.400;2022-12-29T07:28:45;10.40;81.60
21493;DHT22;10908;50.690;4.400;2022-12-29T07:31:16;10.40;81.00
21493;DHT22;10908;50.690;4.400;2022-12-29T07:33:43;10.30;81.10
21493;DHT22;10908;50.690;4.400;2022-12-29T07:36:10;10.40;81.20
21493;DHT22;10908;50.690;4.400;2022-12-29T07:38:35;10.30;80.40
21493;DHT22;10908;50.690;4.400;2022-12-29T07:41:01;10.40;80.30
21493;DHT22;10908;50.690;4.400;2022-12-29T07:43:27;10.40;80.60
21493;DHT22;10908;50.690;4.400;2022-12-29T07:45:53;10.30;80.70
21493;DHT22;10908;50.690;4.400;2022-12-29T07:48:18;10.30;80.00
21493;DHT22;10908;50.690;4.400;2022-12-29T07:50:44;10.40;79.50
21493;DHT22;10908;50.690;4.400;2022-12-29T07:53:10;10.30;79.20
21493;DHT22;10908;50.690;4.400;2022-12-29T07:55:35;10.30;78.70
21493;DHT22;10908;50.690;4.400;2022-12-29T07:58:01;10.30;78.90
21493;DHT22;10908;50.690;4.400;2022-12-29T08:00:27;10.30;78.90
21493;DHT22;10908;50.690;4.400;2022-12-29T08:02:52;10.40;79.10
21493;DHT22;10908;50.690;4.400;2022-12-29T08:05:18;10.30;79.40
21493;DHT22;10908;50.690;4.400;2022-12-29T08:07:44;10.30;79.10
21493;DHT22;10908;50.690;4.400;2022-12-29T08:10:11;10.30;78.90
21493;DHT22;10908;50.690;4.400;2022-12-29T08:12:40;10.30;78.90
21493;DHT22;10908;50.690;4.400;2022-12-29T08:15:06;10.30;79.10
21493;DHT22;10908;50.690;4.400;2022-12-29T08:17:32;10.30;79.20
21493;DHT22;10908;50.690;4.400;2022-12-29T08:19:58;10.30;79.10
21493;DHT22;10908;50.690;4.400;2022-12-29T08:22:24;10.30;79.10
21493;DHT22;10908;50.690;4.400;2022-12-29T08:24:50;10.30;78.90
21493;DHT22;10908;50.690;4.400;2022-12-29T08:27:15;10.30;79.00
21493;DHT22;10908;50.690;4.400;2022-12-29T08:29:41;10.30;78.90
21493;DHT22;10908;50.690;4.400;2022-12-29T08:32:07;10.30;78.80
21493;DHT22;10908;50.690;4.400;2022-12-29T08:34:33;10.30;78.50
21493;DHT22;10908;50.690;4.400;2022-12-29T08:36:58;10.30;78.50
21493;DHT22;10908;50.690;4.400;2022-12-29T08:39:24;10.30;78.70
21493;DHT22;10908;50.690;4.400;2022-12-29T08:41:50;10.20;78.70
21493;DHT22;10908;50.690;4.400;2022-12-29T08:44:15;10.20;78.60
21493;DHT22;10908;50.690;4.400;2022-12-29T08:46:41;10.20;78.60
21493;DHT22;10908;50.690;4.400;2022-12-29T08:49:07;10.20;78.50
21493;DHT22;10908;50.690;4.400;2022-12-29T08:51:32;10.20;78.40
21493;DHT22;10908;50.690;4.400;2022-12-29T08:53:59;10.20;78.50
21493;DHT22;10908;50.690;4.400;2022-12-29T08:56:24;10.20;78.40
21493;DHT22;10908;50.690;4.400;2022-12-29T08:58:51;10.20;78.50
21493;DHT22;10908;50.690;4.400;2022-12-29T09:01:17;10.20;78.40
21493;DHT22;10908;50.690;4.400;2022-12-29T09:03:43;10.20;78.20
21493;DHT22;10908;50.690;4.400;2022-12-29T09:06:09;10.20;78.40
21493;DHT22;10908;50.690;4.400;2022-12-29T09:08:35;10.20;78.10
21493;DHT22;10908;50.690;4.400;2022-12-29T09:11:16;10.10;77.80
21493;DHT22;10908;50.690;4.400;2022-12-29T09:13:42;10.20;77.80
21493;DHT22;10908;50.690;4.400;2022-12-29T09:16:08;10.20;77.80
21493;DHT22;10908;50.690;4.400;2022-12-29T09:18:34;10.20;77.70
21493;DHT22;10908;50.690;4.400;2022-12-29T09:21:04;10.30;77.60
21493;DHT22;10908;50.690;4.400;2022-12-29T09:23:30;10.30;77.10
21493;DHT22;10908;50.690;4.400;2022-12-29T09:25:56;10.30;77.00
21493;DHT22;10908;50.690;4.400;2022-12-29T09:28:22;10.30;77.00
21493;DHT22;10908;50.690;4.400;2022-12-29T09:30:48;10.30;77.10
21493;DHT22;10908;50.690;4.400;2022-12-29T09:33:15;10.40;76.70
21493;DHT22;10908;50.690;4.400;2022-12-29T09:35:45;10.40;76.00
21493;DHT22;10908;50.690;4.400;2022-12-29T09:38:11;10.50;76.20
21493;DHT22;10908;50.690;4.400;2022-12-29T09:40:38;10.50;75.90
21493;DHT22;10908;50.690;4.400;2022-12-29T09:46:26;10.40;75.90
21493;DHT22;10908;50.690;4.400;2022-12-29T09:49:16;10.40;76.00
21493;DHT22;10908;50.690;4.400;2022-12-29T09:51:48;10.40;76.10
21493;DHT22;10908;50.690;4.400;2022-12-29T09:56:58;10.40;76.40
21493;DHT22;10908;50.690;4.400;2022-12-29T09:59:31;10.50;75.80
21493;DHT22;10908;50.690;4.400;2022-12-29T10:04:40;10.60;75.80
21493;DHT22;10908;50.690;4.400;2022-12-29T10:07:33;10.60;75.80
21493;DHT22;10908;50.690;4.400;2022-12-29T10:10:30;10.60;75.60
21493;DHT22;10908;50.690;4.400;2022-12-29T10:23:50;10.60;75.80
21493;DHT22;10908;50.690;4.400;2022-12-29T10:26:19;10.70;75.80
21493;DHT22;10908;50.690;4.400;2022-12-29T10:31:19;10.90;75.00
21493;DHT22;10908;50.690;4.400;2022-12-29T10:33:49;10.90;75.20
21493;DHT22;10908;50.690;4.400;2022-12-29T10:36:21;11.00;74.60
21493;DHT22;10908;50.690;4.400;2022-12-29T10:39:14;11.00;74.60
21493;DHT22;10908;50.690;4.400;2022-12-29T10:41:53;11.10;74.80
21493;DHT22;10908;50.690;4.400;2022-12-29T10:44:20;11.20;74.50
21493;DHT22;10908;50.690;4.400;2022-12-29T10:47:10;11.20;74.30
21493;DHT22;10908;50.690;4.400;2022-12-29T10:49:40;11.20;74.20
21493;DHT22;10908;50.690;4.400;2022-12-29T10:52:08;11.10;74.50
21493;DHT22;10908;50.690;4.400;2022-12-29T10:59:58;11.00;75.40
21493;DHT22;10908;50.690;4.400;2022-12-29T11:05:27;10.90;75.70
21493;DHT22;10908;50.690;4.400;2022-12-29T11:07:59;10.80;75.60
21493;DHT22;10908;50.690;4.400;2022-12-29T11:12:59;10.70;76.30
21493;DHT22;10908;50.690;4.400;2022-12-29T11:15:25;10.80;75.90
21493;DHT22;10908;50.690;4.400;2022-12-29T11:17:53;10.80;76.10
21493;DHT22;10908;50.690;4.400;2022-12-29T11:20:35;10.70;76.30
21493;DHT22;10908;50.690;4.400;2022-12-29T11:23:04;10.60;76.40
21493;DHT22;10908;50.690;4.400;2022-12-29T11:25:31;10.80;76.10
21493;DHT22;10908;50.690;4.400;2022-12-29T11:28:14;10.70;75.70
21493;DHT22;10908;50.690;4.400;2022-12-29T11:30:40;10.70;76.10
21493;DHT22;10908;50.690;4.400;2022-12-29T11:33:07;10.70;75.90
21493;DHT22;10908;50.690;4.400;2022-12-29T11:35:42;10.80;76.00
21493;DHT22;10908;50.690;4.400;2022-12-29T11:38:20;10.80;75.10
21493;DHT22;10908;50.690;4.400;2022-12-29T11:40:47;10.70;75.50
21493;DHT22;10908;50.690;4.400;2022-12-29T11:43:43;10.80;75.90
21493;DHT22;10908;50.690;4.400;2022-12-29T11:46:20;10.80;75.60
21493;DHT22;10908;50.690;4.400;2022-12-29T11:48:47;10.80;75.30
21493;DHT22;10908;50.690;4.400;2022-12-29T11:51:21;10.80;75.60
21493;DHT22;10908;50.690;4.400;2022-12-29T11:53:50;10.60;75.70
21493;DHT22;10908;50.690;4.400;2022-12-29T11:56:20;10.60;75.50
21493;DHT22;10908;50.690;4.400;2022-12-29T11:58:49;10.60;75.70
21493;DHT22;10908;50.690;4.400;2022-12-29T12:03:46;10.70;75.60
21493;DHT22;10908;50.690;4.400;2022-12-29T12:06:16;10.80;75.30
21493;DHT22;10908;50.690;4.400;2022-12-29T12:08:54;10.80;75.10
21493;DHT22;10908;50.690;4.400;2022-12-29T12:11:25;10.80;74.90
21493;DHT22;10908;50.690;4.400;2022-12-29T12:17:15;10.90;75.20
21493;DHT22;10908;50.690;4.400;2022-12-29T12:19:51;10.80;75.50
21493;DHT22;10908;50.690;4.400;2022-12-29T12:25:03;10.80;75.80
21493;DHT22;10908;50.690;4.400;2022-12-29T12:27:39;10.80;75.60
21493;DHT22;10908;50.690;4.400;2022-12-29T12:30:19;10.80;75.40
21493;DHT22;10908;50.690;4.400;2022-12-29T12:35:52;10.70;75.70
21493;DHT22;10908;50.690;4.400;2022-12-29T12:38:45;10.60;75.30
21493;DHT22;10908;50.690;4.400;2022-12-29T12:47:01;10.60;75.70
21493;DHT22;10908;50.690;4.400;2022-12-29T12:49:34;10.60;75.80
21493;DHT22;10908;50.690;4.400;2022-12-29T12:52:13;10.70;75.90
21493;DHT22;10908;50.690;4.400;2022-12-29T13:00:00;10.60;75.90
21493;DHT22;10908;50.690;4.400;2022-12-29T13:03:22;10.60;76.10
21493;DHT22;10908;50.690;4.400;2022-12-29T13:11:20;10.60;77.10
21493;DHT22;10908;50.690;4.400;2022-12-29T13:19:41;10.60;77.60
21493;DHT22;10908;50.690;4.400;2022-12-29T13:31:28;10.30;79.20
21493;DHT22;10908;50.690;4.400;2022-12-29T13:39:27;10.20;81.80
21493;DHT22;10908;50.690;4.400;2022-12-29T13:41:56;10.10;82.30
21493;DHT22;10908;50.690;4.400;2022-12-29T13:44:35;10.10;82.30
21493;DHT22;10908;50.690;4.400;2022-12-29T13:47:25;10.00;83.00
21493;DHT22;10908;50.690;4.400;2022-12-29T13:49:53;10.00;83.40
21493;DHT22;10908;50.690;4.400;2022-12-29T14:01:10;10.40;82.60
21493;DHT22;10908;50.690;4.400;2022-12-29T14:03:50;10.30;80.80
21493;DHT22;10908;50.690;4.400;2022-12-29T14:06:28;10.30;79.60
21493;DHT22;10908;50.690;4.400;2022-12-29T14:08:59;10.30;78.60
21493;DHT22;10908;50.690;4.400;2022-12-29T14:11:39;10.30;78.90
21493;DHT22;10908;50.690;4.400;2022-12-29T14:14:33;10.30;78.90
21493;DHT22;10908;50.690;4.400;2022-12-29T14:17:11;10.30;78.30
21493;DHT22;10908;50.690;4.400;2022-12-29T14:19:44;10.30;77.70
21493;DHT22;10908;50.690;4.400;2022-12-29T14:22:10;10.30;76.60
21493;DHT22;10908;50.690;4.400;2022-12-29T14:24:42;10.20;77.20
21493;DHT22;10908;50.690;4.400;2022-12-29T14:34:47;10.30;77.70
21493;DHT22;10908;50.690;4.400;2022-12-29T14:42:43;10.20;78.20
21493;DHT22;10908;50.690;4.400;2022-12-29T14:47:48;10.20;78.80
21493;DHT22;10908;50.690;4.400;2022-12-29T14:53:00;10.10;80.10
21493;DHT22;10908;50.690;4.400;2022-12-29T14:58:28;10.00;80.20
21493;DHT22;10908;50.690;4.400;2022-12-29T15:00:55;10.00;80.50
21493;DHT22;10908;50.690;4.400;2022-12-29T15:03:45;9.90;80.60
21493;DHT22;10908;50.690;4.400;2022-12-29T15:06:13;9.90;81.20
21493;DHT22;10908;50.690;4.400;2022-12-29T15:11:52;9.80;81.80
21493;DHT22;10908;50.690;4.400;2022-12-29T15:16:59;9.80;82.30
21493;DHT22;10908;50.690;4.400;2022-12-29T15:19:26;9.60;82.70
21493;DHT22;10908;50.690;4.400;2022-12-29T15:21:53;9.60;83.00
21493;DHT22;10908;50.690;4.400;2022-12-29T15:24:19;9.70;83.20
21493;DHT22;10908;50.690;4.400;2022-12-29T15:26:50;9.60;83.30
21493;DHT22;10908;50.690;4.400;2022-12-29T15:29:40;9.60;83.00
21493;DHT22;10908;50.690;4.400;2022-12-29T15:34:44;9.30;82.60
21493;DHT22;10908;50.690;4.400;2022-12-29T15:37:21;9.20;82.40
21493;DHT22;10908;50.690;4.400;2022-12-29T15:39:47;9.10;82.10
21493;DHT22;10908;50.690;4.400;2022-12-29T15:45:33;8.90;81.30
21493;DHT22;10908;50.690;4.400;2022-12-29T15:48:00;8.80;81.50
21493;DHT22;10908;50.690;4.400;2022-12-29T15:50:32;8.80;81.50
21493;DHT22;10908;50.690;4.400;2022-12-29T15:52:59;8.90;81.10
21493;DHT22;10908;50.690;4.400;2022-12-29T15:55:34;8.80;80.80
21493;DHT22;10908;50.690;4.400;2022-12-29T15:58:02;8.80;80.30
21493;DHT22;10908;50.690;4.400;2022-12-29T16:00:33;8.80;80.20
21493;DHT22;10908;50.690;4.400;2022-12-29T16:03:02;8.70;80.30
21493;DHT22;10908;50.690;4.400;2022-12-29T16:05:36;8.70;80.20
21493;DHT22;10908;50.690;4.400;2022-12-29T16:08:03;8.70;80.00
21493;DHT22;10908;50.690;4.400;2022-12-29T16:10:37;8.70;80.30
21493;DHT22;10908;50.690;4.400;2022-12-29T16:13:12;8.70;80.50
21493;DHT22;10908;50.690;4.400;2022-12-29T16:15:45;8.70;80.60
21493;DHT22;10908;50.690;4.400;2022-12-29T16:18:23;8.60;81.00
21493;DHT22;10908;50.690;4.400;2022-12-29T16:20:50;8.50;81.30
21493;DHT22;10908;50.690;4.400;2022-12-29T16:23:25;8.40;81.90
21493;DHT22;10908;50.690;4.400;2022-12-29T16:25:52;8.40;81.80
21493;DHT22;10908;50.690;4.400;2022-12-29T16:28:47;8.40;82.20
21493;DHT22;10908;50.690;4.400;2022-12-29T16:31:22;8.40;82.50
21493;DHT22;10908;50.690;4.400;2022-12-29T16:33:54;8.40;82.60
21493;DHT22;10908;50.690;4.400;2022-12-29T16:36:32;8.50;82.50
21493;DHT22;10908;50.690;4.400;2022-12-29T16:41:54;8.50;82.60
21493;DHT22;10908;50.690;4.400;2022-12-29T16:44:30;8.40;83.00
21493;DHT22;10908;50.690;4.400;2022-12-29T16:49:37;8.40;83.00
21493;DHT22;10908;50.690;4.400;2022-12-29T16:52:18;8.40;82.60
21493;DHT22;10908;50.690;4.400;2022-12-29T16:54:53;8.30;82.00
21493;DHT22;10908;50.690;4.400;2022-12-29T16:57:28;8.40;81.60
21493;DHT22;10908;50.690;4.400;2022-12-29T17:00:02;8.40;81.10
21493;DHT22;10908;50.690;4.400;2022-12-29T17:02:30;8.40;80.20
21493;DHT22;10908;50.690;4.400;2022-12-29T17:04:57;8.50;79.80
21493;DHT22;10908;50.690;4.400;2022-12-29T17:07:25;8.50;79.30
21493;DHT22;10908;50.690;4.400;2022-12-29T17:09:52;8.50;79.20
21493;DHT22;10908;50.690;4.400;2022-12-29T17:12:27;8.50;79.40
21493;DHT22;10908;50.690;4.400;2022-12-29T17:15:06;8.60;79.70
21493;DHT22;10908;50.690;4.400;2022-12-29T17:17:46;8.70;79.50
21493;DHT22;10908;50.690;4.400;2022-12-29T17:22:43;8.60;80.20
21493;DHT22;10908;50.690;4.400;2022-12-29T17:25:24;8.70;80.40
21493;DHT22;10908;50.690;4.400;2022-12-29T17:28:20;8.70;80.50
21493;DHT22;10908;50.690;4.400;2022-12-29T17:30:46;8.70;80.60
21493;DHT22;10908;50.690;4.400;2022-12-29T17:33:14;8.60;80.80
21493;DHT22;10908;50.690;4.400;2022-12-29T17:35:41;8.50;81.00
21493;DHT22;10908;50.690;4.400;2022-12-29T17:38:21;8.40;81.50
21493;DHT22;10908;50.690;4.400;2022-12-29T17:40:48;8.30;81.80
21493;DHT22;10908;50.690;4.400;2022-12-29T17:43:15;8.20;82.00
21493;DHT22;10908;50.690;4.400;2022-12-29T17:45:42;8.20;82.10
21493;DHT22;10908;50.690;4.400;2022-12-29T17:48:15;8.20;82.20
21493;DHT22;10908;50.690;4.400;2022-12-29T17:50:42;8.20;82.40
21493;DHT22;10908;50.690;4.400;2022-12-29T17:53:13;8.20;82.30
21493;DHT22;10908;50.690;4.400;2022-12-29T17:55:40;8.10;82.50
21493;DHT22;10908;50.690;4.400;2022-12-29T17:58:31;7.90;82.70
21493;DHT22;10908;50.690;4.400;2022-12-29T18:00:59;7.90;82.90
21493;DHT22;10908;50.690;4.400;2022-12-29T18:03:30;7.90;82.90
21493;DHT22;10908;50.690;4.400;2022-12-29T18:05:57;7.90;83.00
21493;DHT22;10908;50.690;4.400;2022-12-29T18:08:23;8.00;82.90
21493;DHT22;10908;50.690;4.400;2022-12-29T18:10:50;8.00;82.50
21493;DHT22;10908;50.690;4.400;2022-12-29T18:13:26;8.00;82.50
21493;DHT22;10908;50.690;4.400;2022-12-29T18:15:53;7.90;82.40
21493;DHT22;10908;50.690;4.400;2022-12-29T18:18:23;7.90;82.50
21493;DHT22;10908;50.690;4.400;2022-12-29T18:20:51;7.90;82.60
21493;DHT22;10908;50.690;4.400;2022-12-29T18:23:30;7.90;82.70
21493;DHT22;10908;50.690;4.400;2022-12-29T18:26:11;7.90;82.60
21493;DHT22;10908;50.690;4.400;2022-12-29T18:28:39;7.90;82.40
21493;DHT22;10908;50.690;4.400;2022-12-29T18:31:23;7.90;82.60
21493;DHT22;10908;50.690;4.400;2022-12-29T18:33:50;7.80;82.70
21493;DHT22;10908;50.690;4.400;2022-12-29T18:36:17;7.80;82.70
21493;DHT22;10908;50.690;4.400;2022-12-29T18:38:44;7.90;82.60
21493;DHT22;10908;50.690;4.400;2022-12-29T18:41:39;7.80;82.50